sensor_id;sensor_type;location;lat;lon;timestamp;pressure;altitude;pressure_sealevel;temperature;humidity
8061;BME280;4073;42.626;25.386;2022-12-08T00:01:45;97179.66;;;3.44;100.00
8061;BME280;4073;42.626;25.386;2022-12-08T00:04:11;97176.00;;;3.45;100.00
8061;BME280;4073;42.626;25.386;2022-12-08T00:06:41;97190.81;;;3.46;100.00
8061;BME280;4073;42.626;25.386;2022-12-08T00:09:32;97181.03;;;3.46;100.00
8061;BME280;4073;42.626;25.386;2022-12-08T00:12:09;97172.19;;;3.41;100.00
8061;BME280;4073;42.626;25.386;2022-12-08T00:14:37;97182.16;;;3.39;100.00
8061;BME280;4073;42.626;25.386;2022-12-08T00:17:04;97184.69;;;3.34;100.00
8061;BME280;4073;42.626;25.386;2022-12-08T00:19:30;97184.78;;;3.27;100.00
8061;BME280;4073;42.626;25.386;2022-12-08T00:21:56;97185.81;;;3.26;100.00
8061;BME280;4073;42.626;25.386;2022-12-08T00:24:23;97189.72;;;3.24;100.00
8061;BME280;4073;42.626;25.386;2022-12-08T00:26:49;97181.09;;;3.17;100.00
8061;BME280;4073;42.626;25.386;2022-12-08T00:29:15;97180.16;;;3.11;100.00
8061;BME280;4073;42.626;25.386;2022-12-08T00:31:40;97196.28;;;3.03;100.00
8061;BME280;4073;42.626;25.386;2022-12-08T00:34:06;97198.59;;;3.00;100.00
8061;BME280;4073;42.626;25.386;2022-12-08T00:36:32;97198.44;;;2.95;100.00
8061;BME280;4073;42.626;25.386;2022-12-08T00:38:57;97199.09;;;2.90;100.00
8061;BME280;4073;42.626;25.386;2022-12-08T00:41:25;97201.66;;;2.78;100.00
8061;BME280;4073;42.626;25.386;2022-12-08T00:44:12;97189.50;;;2.78;100.00
8061;BME280;4073;42.626;25.386;2022-12-08T00:46:38;97192.03;;;2.72;100.00
8061;BME280;4073;42.626;25.386;2022-12-08T00:49:05;97188.34;;;2.73;100.00
8061;BME280;4073;42.626;25.386;2022-12-08T00:51:31;97183.66;;;2.76;100.00
8061;BME280;4073;42.626;25.386;2022-12-08T00:53:57;97180.56;;;2.78;100.00
8061;BME280;4073;42.626;25.386;2022-12-08T00:56:22;97180.09;;;2.82;100.00
8061;BME280;4073;42.626;25.386;2022-12-08T00:58:48;97184.94;;;2.85;100.00
8061;BME280;4073;42.626;25.386;2022-12-08T01:01:13;97186.00;;;2.84;100.00
8061;BME280;4073;42.626;25.386;2022-12-08T01:03:40;97176.91;;;2.80;100.00
8061;BME280;4073;42.626;25.386;2022-12-08T01:06:06;97183.13;;;2.85;100.00
8061;BME280;4073;42.626;25.386;2022-12-08T01:08:32;97182.75;;;2.82;100.00
8061;BME280;4073;42.626;25.386;2022-12-08T01:11:10;97184.28;;;2.89;100.00
8061;BME280;4073;42.626;25.386;2022-12-08T01:13:36;97178.78;;;2.91;100.00
8061;BME280;4073;42.626;25.386;2022-12-08T01:16:02;97176.16;;;2.91;100.00
8061;BME280;4073;42.626;25.386;2022-12-08T01:18:28;97176.59;;;2.88;100.00
8061;BME280;4073;42.626;25.386;2022-12-08T01:20:54;97175.66;;;2.82;100.00
8061;BME280;4073;42.626;25.386;2022-12-08T01:23:19;97179.09;;;2.83;100.00
8061;BME280;4073;42.626;25.386;2022-12-08T01:25:45;97175.44;;;2.84;100.00
8061;BME280;4073;42.626;25.386;2022-12-08T01:28:10;97185.31;;;2.88;100.00
8061;BME280;4073;42.626;25.386;2022-12-08T01:30:39;97176.59;;;2.88;100.00
8061;BME280;4073;42.626;25.386;2022-12-08T01:33:05;97182.09;;;2.86;100.00
8061;BME280;4073;42.626;25.386;2022-12-08T01:35:30;97178.16;;;2.77;100.00
8061;BME280;4073;42.626;25.386;2022-12-08T01:37:56;97186.44;;;2.81;100.00
8061;BME280;4073;42.626;25.386;2022-12-08T01:40:21;97181.75;;;2.83;100.00
8061;BME280;4073;42.626;25.386;2022-12-08T01:42:48;97187.59;;;2.85;100.00
8061;BME280;4073;42.626;25.386;2022-12-08T01:45:22;97182.03;;;2.74;100.00
8061;BME280;4073;42.626;25.386;2022-12-08T01:47:50;97183.72;;;2.69;100.00
8061;BME280;4073;42.626;25.386;2022-12-08T01:50:19;97187.94;;;2.58;100.00
8061;BME280;4073;42.626;25.386;2022-12-08T01:53:09;97195.25;;;2.56;100.00
8061;BME280;4073;42.626;25.386;2022-12-08T01:55:41;97187.34;;;2.56;100.00
8061;BME280;4073;42.626;25.386;2022-12-08T01:58:14;97185.28;;;2.58;100.00
8061;BME280;4073;42.626;25.386;2022-12-08T02:00:41;97179.19;;;2.58;100.00
8061;BME280;4073;42.626;25.386;2022-12-08T02:03:19;97171.50;;;2.56;100.00
8061;BME280;4073;42.626;25.386;2022-12-08T02:05:46;97166.44;;;2.55;100.00
8061;BME280;4073;42.626;25.386;2022-12-08T02:08:13;97177.38;;;2.58;100.00
8061;BME280;4073;42.626;25.386;2022-12-08T02:10:41;97170.13;;;2.54;100.00
8061;BME280;4073;42.626;25.386;2022-12-08T02:13:16;97164.63;;;2.55;100.00
8061;BME280;4073;42.626;25.386;2022-12-08T02:20:51;97170.50;;;2.87;100.00
8061;BME280;4073;42.626;25.386;2022-12-08T02:23:23;97171.59;;;2.98;100.00
8061;BME280;4073;42.626;25.386;2022-12-08T02:34:42;97156.03;;;3.19;100.00
8061;BME280;4073;42.626;25.386;2022-12-08T02:37:08;97160.00;;;3.28;100.00
8061;BME280;4073;42.626;25.386;2022-12-08T02:39:42;97162.97;;;3.32;100.00
8061;BME280;4073;42.626;25.386;2022-12-08T02:42:39;97149.91;;;3.37;100.00
8061;BME280;4073;42.626;25.386;2022-12-08T02:45:16;97161.47;;;3.36;100.00
8061;BME280;4073;42.626;25.386;2022-12-08T02:47:43;97154.97;;;3.38;100.00
8061;BME280;4073;42.626;25.386;2022-12-08T02:50:10;97173.19;;;3.40;100.00
8061;BME280;4073;42.626;25.386;2022-12-08T02:52:41;97159.44;;;3.38;100.00
8061;BME280;4073;42.626;25.386;2022-12-08T02:55:28;97167.13;;;3.39;100.00
8061;BME280;4073;42.626;25.386;2022-12-08T03:03:58;97171.53;;;3.45;100.00
8061;BME280;4073;42.626;25.386;2022-12-08T03:06:41;97187.38;;;3.45;100.00
8061;BME280;4073;42.626;25.386;2022-12-08T03:09:17;97174.47;;;3.37;100.00
8061;BME280;4073;42.626;25.386;2022-12-08T03:14:18;97175.03;;;3.28;100.00
8061;BME280;4073;42.626;25.386;2022-12-08T03:16:48;97170.56;;;3.28;100.00
8061;BME280;4073;42.626;25.386;2022-12-08T03:19:24;97169.63;;;3.34;100.00
8061;BME280;4073;42.626;25.386;2022-12-08T03:21:53;97179.31;;;3.40;100.00
8061;BME280;4073;42.626;25.386;2022-12-08T03:24:27;97180.91;;;3.41;100.00
8061;BME280;4073;42.626;25.386;2022-12-08T03:27:10;97184.84;;;3.50;100.00
8061;BME280;4073;42.626;25.386;2022-12-08T03:29:36;97175.09;;;3.51;100.00
8061;BME280;4073;42.626;25.386;2022-12-08T03:35:02;97185.22;;;3.54;100.00
8061;BME280;4073;42.626;25.386;2022-12-08T03:37:28;97193.13;;;3.54;100.00
8061;BME280;4073;42.626;25.386;2022-12-08T03:39:54;97190.84;;;3.57;100.00
8061;BME280;4073;42.626;25.386;2022-12-08T03:42:20;97190.72;;;3.52;100.00
8061;BME280;4073;42.626;25.386;2022-12-08T03:44:45;97181.31;;;3.56;100.00
8061;BME280;4073;42.626;25.386;2022-12-08T03:47:11;97181.53;;;3.55;100.00
8061;BME280;4073;42.626;25.386;2022-12-08T03:49:36;97186.69;;;3.61;100.00
8061;BME280;4073;42.626;25.386;2022-12-08T03:52:02;97184.19;;;3.66;100.00
8061;BME280;4073;42.626;25.386;2022-12-08T03:54:27;97183.84;;;3.74;100.00
8061;BME280;4073;42.626;25.386;2022-12-08T03:56:53;97189.03;;;3.69;100.00
8061;BME280;4073;42.626;25.386;2022-12-08T03:59:18;97189.72;;;3.76;100.00
8061;BME280;4073;42.626;25.386;2022-12-08T04:01:44;97191.56;;;3.76;100.00
8061;BME280;4073;42.626;25.386;2022-12-08T04:04:09;97188.47;;;3.79;100.00
8061;BME280;4073;42.626;25.386;2022-12-08T04:06:35;97187.09;;;3.76;100.00
8061;BME280;4073;42.626;25.386;2022-12-08T04:09:00;97185.78;;;3.67;100.00
8061;BME280;4073;42.626;25.386;2022-12-08T04:11:25;97180.28;;;3.69;100.00
8061;BME280;4073;42.626;25.386;2022-12-08T04:13:51;97183.75;;;3.69;100.00
8061;BME280;4073;42.626;25.386;2022-12-08T04:16:19;97187.75;;;3.72;100.00
8061;BME280;4073;42.626;25.386;2022-12-08T04:18:45;97190.41;;;3.72;100.00
8061;BME280;4073;42.626;25.386;2022-12-08T04:21:11;97201.91;;;3.77;100.00
8061;BME280;4073;42.626;25.386;2022-12-08T04:23:36;97199.16;;;3.84;100.00
8061;BME280;4073;42.626;25.386;2022-12-08T04:26:02;97193.75;;;3.90;100.00
8061;BME280;4073;42.626;25.386;2022-12-08T04:28:28;97194.09;;;3.94;100.00
8061;BME280;4073;42.626;25.386;2022-12-08T04:30:54;97200.19;;;3.94;100.00
8061;BME280;4073;42.626;25.386;2022-12-08T04:33:20;97210.78;;;3.94;100.00
8061;BME280;4073;42.626;25.386;2022-12-08T04:35:45;97215.84;;;3.96;100.00
8061;BME280;4073;42.626;25.386;2022-12-08T04:38:11;97214.25;;;3.95;100.00
8061;BME280;4073;42.626;25.386;2022-12-08T04:40:37;97211.47;;;3.90;100.00
8061;BME280;4073;42.626;25.386;2022-12-08T04:43:03;97213.44;;;3.94;100.00
8061;BME280;4073;42.626;25.386;2022-12-08T04:45:28;97208.94;;;3.95;100.00
8061;BME280;4073;42.626;25.386;2022-12-08T04:47:54;97201.47;;;3.92;100.00
8061;BME280;4073;42.626;25.386;2022-12-08T04:50:19;97211.69;;;4.00;100.00
8061;BME280;4073;42.626;25.386;2022-12-08T04:52:45;97217.00;;;4.00;100.00
8061;BME280;4073;42.626;25.386;2022-12-08T04:55:10;97211.81;;;3.93;100.00
8061;BME280;4073;42.626;25.386;2022-12-08T04:57:36;97208.50;;;3.98;100.00
8061;BME280;4073;42.626;25.386;2022-12-08T05:00:03;97216.44;;;3.98;100.00
8061;BME280;4073;42.626;25.386;2022-12-08T05:02:29;97211.63;;;4.06;100.00
8061;BME280;4073;42.626;25.386;2022-12-08T05:04:55;97217.00;;;4.11;100.00
8061;BME280;4073;42.626;25.386;2022-12-08T05:07:20;97218.97;;;4.16;100.00
8061;BME280;4073;42.626;25.386;2022-12-08T05:09:45;97213.53;;;4.22;100.00
8061;BME280;4073;42.626;25.386;2022-12-08T05:12:11;97211.25;;;4.26;100.00
8061;BME280;4073;42.626;25.386;2022-12-08T05:14:36;97208.72;;;4.31;100.00
8061;BME280;4073;42.626;25.386;2022-12-08T05:17:02;97218.97;;;4.27;100.00
8061;BME280;4073;42.626;25.386;2022-12-08T05:19:27;97220.13;;;4.31;100.00
8061;BME280;4073;42.626;25.386;2022-12-08T05:21:53;97212.63;;;4.28;100.00
8061;BME280;4073;42.626;25.386;2022-12-08T05:24:18;97209.31;;;4.33;100.00
8061;BME280;4073;42.626;25.386;2022-12-08T05:26:44;97212.50;;;4.35;100.00
8061;BME280;4073;42.626;25.386;2022-12-08T05:29:10;97212.63;;;4.40;100.00
8061;BME280;4073;42.626;25.386;2022-12-08T05:31:35;97215.72;;;4.37;100.00
8061;BME280;4073;42.626;25.386;2022-12-08T05:34:01;97214.81;;;4.43;100.00
8061;BME280;4073;42.626;25.386;2022-12-08T05:36:26;97224.94;;;4.46;100.00
8061;BME280;4073;42.626;25.386;2022-12-08T05:38:52;97214.91;;;4.48;100.00
8061;BME280;4073;42.626;25.386;2022-12-08T05:41:20;97217.34;;;4.49;100.00
8061;BME280;4073;42.626;25.386;2022-12-08T05:43:46;97223.00;;;4.41;100.00
8061;BME280;4073;42.626;25.386;2022-12-08T05:46:12;97228.50;;;4.40;100.00
8061;BME280;4073;42.626;25.386;2022-12-08T05:48:38;97210.00;;;4.28;100.00
8061;BME280;4073;42.626;25.386;2022-12-08T05:51:04;97223.44;;;4.38;100.00
8061;BME280;4073;42.626;25.386;2022-12-08T05:53:31;97237.50;;;4.39;100.00
8061;BME280;4073;42.626;25.386;2022-12-08T05:55:56;97240.69;;;4.41;100.00
8061;BME280;4073;42.626;25.386;2022-12-08T05:58:22;97236.09;;;4.48;100.00
8061;BME280;4073;42.626;25.386;2022-12-08T06:00:49;97240.59;;;4.47;100.00
8061;BME280;4073;42.626;25.386;2022-12-08T06:03:16;97231.38;;;4.50;100.00
8061;BME280;4073;42.626;25.386;2022-12-08T06:05:44;97237.94;;;4.59;100.00
8061;BME280;4073;42.626;25.386;2022-12-08T06:08:10;97231.03;;;4.58;100.00
8061;BME280;4073;42.626;25.386;2022-12-08T06:10:40;97244.16;;;4.53;100.00
8061;BME280;4073;42.626;25.386;2022-12-08T06:13:06;97251.75;;;4.61;100.00
8061;BME280;4073;42.626;25.386;2022-12-08T06:15:33;97261.19;;;4.57;100.00
8061;BME280;4073;42.626;25.386;2022-12-08T06:17:59;97256.47;;;4.59;100.00
8061;BME280;4073;42.626;25.386;2022-12-08T06:20:24;97248.41;;;4.54;100.00
8061;BME280;4073;42.626;25.386;2022-12-08T06:22:50;97247.50;;;4.60;100.00
8061;BME280;4073;42.626;25.386;2022-12-08T06:25:15;97250.00;;;4.66;100.00
8061;BME280;4073;42.626;25.386;2022-12-08T06:27:41;97239.41;;;4.66;100.00
8061;BME280;4073;42.626;25.386;2022-12-08T06:30:06;97253.34;;;4.73;100.00
8061;BME280;4073;42.626;25.386;2022-12-08T06:32:32;97261.03;;;4.75;100.00
8061;BME280;4073;42.626;25.386;2022-12-08T06:34:57;97254.84;;;4.69;100.00
8061;BME280;4073;42.626;25.386;2022-12-08T06:37:23;97254.84;;;4.69;100.00
8061;BME280;4073;42.626;25.386;2022-12-08T06:39:48;97258.63;;;4.73;100.00
8061;BME280;4073;42.626;25.386;2022-12-08T06:42:14;97259.53;;;4.79;100.00
8061;BME280;4073;42.626;25.386;2022-12-08T06:44:58;97241.16;;;4.61;100.00
8061;BME280;4073;42.626;25.386;2022-12-08T06:47:24;97251.63;;;4.67;100.00
8061;BME280;4073;42.626;25.386;2022-12-08T06:49:49;97249.88;;;4.84;100.00
8061;BME280;4073;42.626;25.386;2022-12-08T06:52:15;97248.59;;;4.87;100.00
8061;BME280;4073;42.626;25.386;2022-12-08T06:54:40;97236.25;;;4.92;100.00
8061;BME280;4073;42.626;25.386;2022-12-08T06:57:06;97251.44;;;5.08;100.00
8061;BME280;4073;42.626;25.386;2022-12-08T06:59:31;97250.25;;;5.16;100.00
8061;BME280;4073;42.626;25.386;2022-12-08T07:01:57;97251.06;;;5.16;100.00
8061;BME280;4073;42.626;25.386;2022-12-08T07:04:22;97257.03;;;5.23;100.00
8061;BME280;4073;42.626;25.386;2022-12-08T07:06:48;97260.81;;;5.27;100.00
8061;BME280;4073;42.626;25.386;2022-12-08T07:09:13;97261.47;;;5.34;100.00
8061;BME280;4073;42.626;25.386;2022-12-08T07:11:39;97273.78;;;5.40;100.00
8061;BME280;4073;42.626;25.386;2022-12-08T07:14:05;97265.72;;;5.47;100.00
8061;BME280;4073;42.626;25.386;2022-12-08T07:16:30;97269.72;;;5.50;100.00
8061;BME280;4073;42.626;25.386;2022-12-08T07:19:14;97263.22;;;5.57;100.00
8061;BME280;4073;42.626;25.386;2022-12-08T07:21:39;97279.81;;;5.64;100.00
8061;BME280;4073;42.626;25.386;2022-12-08T07:24:05;97286.25;;;5.68;100.00
8061;BME280;4073;42.626;25.386;2022-12-08T07:26:31;97277.25;;;5.69;100.00
8061;BME280;4073;42.626;25.386;2022-12-08T07:28:58;97287.94;;;5.74;100.00
8061;BME280;4073;42.626;25.386;2022-12-08T07:31:24;97292.22;;;5.75;100.00
8061;BME280;4073;42.626;25.386;2022-12-08T07:33:51;97292.53;;;5.79;100.00
8061;BME280;4073;42.626;25.386;2022-12-08T07:36:17;97301.53;;;5.78;100.00
8061;BME280;4073;42.626;25.386;2022-12-08T07:38:42;97305.00;;;5.90;100.00
8061;BME280;4073;42.626;25.386;2022-12-08T07:41:12;97318.69;;;5.98;100.00
8061;BME280;4073;42.626;25.386;2022-12-08T07:43:39;97315.78;;;6.00;100.00
8061;BME280;4073;42.626;25.386;2022-12-08T07:46:04;97322.28;;;6.09;100.00
8061;BME280;4073;42.626;25.386;2022-12-08T07:48:30;97314.09;;;6.10;100.00
8061;BME280;4073;42.626;25.386;2022-12-08T07:50:59;97320.59;;;6.03;100.00
8061;BME280;4073;42.626;25.386;2022-12-08T07:53:25;97309.84;;;6.09;100.00
8061;BME280;4073;42.626;25.386;2022-12-08T07:55:51;97312.91;;;6.18;100.00
8061;BME280;4073;42.626;25.386;2022-12-08T07:58:16;97325.47;;;6.22;100.00
8061;BME280;4073;42.626;25.386;2022-12-08T08:00:41;97327.22;;;6.33;100.00
8061;BME280;4073;42.626;25.386;2022-12-08T08:03:09;97326.75;;;6.36;100.00
8061;BME280;4073;42.626;25.386;2022-12-08T08:05:35;97331.59;;;6.39;100.00
8061;BME280;4073;42.626;25.386;2022-12-08T08:08:00;97326.28;;;6.39;100.00
8061;BME280;4073;42.626;25.386;2022-12-08T08:10:26;97329.25;;;6.43;100.00
8061;BME280;4073;42.626;25.386;2022-12-08T08:12:51;97326.44;;;6.49;100.00
8061;BME280;4073;42.626;25.386;2022-12-08T08:15:17;97335.84;;;6.57;100.00
8061;BME280;4073;42.626;25.386;2022-12-08T08:17:48;97337.75;;;6.61;100.00
8061;BME280;4073;42.626;25.386;2022-12-08T08:20:15;97330.69;;;6.67;100.00
8061;BME280;4073;42.626;25.386;2022-12-08T08:22:40;97336.88;;;6.72;100.00
8061;BME280;4073;42.626;25.386;2022-12-08T08:25:06;97339.84;;;6.76;100.00
8061;BME280;4073;42.626;25.386;2022-12-08T08:27:31;97330.59;;;6.78;100.00
8061;BME280;4073;42.626;25.386;2022-12-08T08:29:57;97319.81;;;6.85;100.00
8061;BME280;4073;42.626;25.386;2022-12-08T08:32:22;97325.41;;;6.88;100.00
8061;BME280;4073;42.626;25.386;2022-12-08T08:34:48;97327.84;;;6.90;100.00
8061;BME280;4073;42.626;25.386;2022-12-08T08:37:13;97319.13;;;6.94;100.00
8061;BME280;4073;42.626;25.386;2022-12-08T08:39:39;97327.25;;;7.04;100.00
8061;BME280;4073;42.626;25.386;2022-12-08T08:42:04;97319.16;;;7.16;100.00
8061;BME280;4073;42.626;25.386;2022-12-08T08:44:30;97315.22;;;7.18;100.00
8061;BME280;4073;42.626;25.386;2022-12-08T08:46:55;97318.53;;;7.30;100.00
8061;BME280;4073;42.626;25.386;2022-12-08T08:49:20;97326.28;;;7.32;100.00
8061;BME280;4073;42.626;25.386;2022-12-08T08:51:46;97321.53;;;7.34;100.00
8061;BME280;4073;42.626;25.386;2022-12-08T08:54:11;97316.94;;;7.29;100.00
8061;BME280;4073;42.626;25.386;2022-12-08T08:56:37;97327.91;;;7.33;100.00
8061;BME280;4073;42.626;25.386;2022-12-08T08:59:02;97318.06;;;7.33;100.00
8061;BME280;4073;42.626;25.386;2022-12-08T09:01:28;97321.28;;;7.35;100.00
8061;BME280;4073;42.626;25.386;2022-12-08T09:03:55;97305.25;;;7.30;100.00
8061;BME280;4073;42.626;25.386;2022-12-08T09:06:21;97308.84;;;7.41;100.00
8061;BME280;4073;42.626;25.386;2022-12-08T09:08:48;97299.88;;;7.47;100.00
8061;BME280;4073;42.626;25.386;2022-12-08T09:11:13;97298.81;;;7.48;100.00
8061;BME280;4073;42.626;25.386;2022-12-08T09:13:39;97297.22;;;7.47;100.00
8061;BME280;4073;42.626;25.386;2022-12-08T09:16:06;97288.66;;;7.45;100.00
8061;BME280;4073;42.626;25.386;2022-12-08T09:18:32;97287.13;;;7.49;100.00
8061;BME280;4073;42.626;25.386;2022-12-08T09:21:09;97285.09;;;7.56;100.00
8061;BME280;4073;42.626;25.386;2022-12-08T09:23:37;97286.38;;;7.53;100.00
8061;BME280;4073;42.626;25.386;2022-12-08T09:26:03;97296.59;;;7.61;100.00
8061;BME280;4073;42.626;25.386;2022-12-08T09:28:29;97289.25;;;7.73;100.00
8061;BME280;4073;42.626;25.386;2022-12-08T09:30:55;97287.44;;;7.79;100.00
8061;BME280;4073;42.626;25.386;2022-12-08T09:33:20;97284.59;;;7.85;100.00
8061;BME280;4073;42.626;25.386;2022-12-08T09:35:46;97278.25;;;7.91;100.00
8061;BME280;4073;42.626;25.386;2022-12-08T09:38:12;97279.56;;;7.89;100.00
8061;BME280;4073;42.626;25.386;2022-12-08T09:40:47;97266.81;;;7.91;100.00
8061;BME280;4073;42.626;25.386;2022-12-08T09:45:45;97264.50;;;7.99;100.00
8061;BME280;4073;42.626;25.386;2022-12-08T09:48:18;97273.09;;;8.07;100.00
8061;BME280;4073;42.626;25.386;2022-12-08T09:50:55;97262.47;;;8.12;100.00
8061;BME280;4073;42.626;25.386;2022-12-08T09:53:25;97257.19;;;8.17;100.00
8061;BME280;4073;42.626;25.386;2022-12-08T09:55:55;97263.13;;;8.24;100.00
8061;BME280;4073;42.626;25.386;2022-12-08T09:58:34;97259.97;;;8.27;100.00
8061;BME280;4073;42.626;25.386;2022-12-08T10:01:01;97262.91;;;8.30;100.00
8061;BME280;4073;42.626;25.386;2022-12-08T10:03:28;97252.06;;;8.37;100.00
8061;BME280;4073;42.626;25.386;2022-12-08T10:06:06;97254.50;;;8.43;100.00
8061;BME280;4073;42.626;25.386;2022-12-08T10:08:45;97258.22;;;8.42;100.00
8061;BME280;4073;42.626;25.386;2022-12-08T10:11:22;97262.22;;;8.40;100.00
8061;BME280;4073;42.626;25.386;2022-12-08T10:13:55;97248.88;;;8.40;100.00
8061;BME280;4073;42.626;25.386;2022-12-08T10:16:30;97245.38;;;8.34;100.00
8061;BME280;4073;42.626;25.386;2022-12-08T10:19:12;97241.84;;;8.29;100.00
8061;BME280;4073;42.626;25.386;2022-12-08T10:21:38;97246.81;;;8.20;100.00
8061;BME280;4073;42.626;25.386;2022-12-08T10:24:14;97243.03;;;8.11;100.00
8061;BME280;4073;42.626;25.386;2022-12-08T10:26:41;97231.63;;;8.16;100.00
8061;BME280;4073;42.626;25.386;2022-12-08T10:29:11;97234.91;;;8.23;100.00
8061;BME280;4073;42.626;25.386;2022-12-08T10:31:37;97230.16;;;8.30;100.00
8061;BME280;4073;42.626;25.386;2022-12-08T10:34:17;97223.00;;;8.35;100.00
8061;BME280;4073;42.626;25.386;2022-12-08T10:36:46;97214.53;;;8.43;100.00
8061;BME280;4073;42.626;25.386;2022-12-08T10:39:40;97218.59;;;8.51;100.00
8061;BME280;4073;42.626;25.386;2022-12-08T10:45:03;97216.31;;;8.69;100.00
8061;BME280;4073;42.626;25.386;2022-12-08T10:47:41;97214.72;;;8.73;100.00
8061;BME280;4073;42.626;25.386;2022-12-08T10:55:43;97217.44;;;8.83;100.00
8061;BME280;4073;42.626;25.386;2022-12-08T10:58:32;97219.84;;;8.90;100.00
8061;BME280;4073;42.626;25.386;2022-12-08T11:01:03;97216.41;;;8.89;100.00
8061;BME280;4073;42.626;25.386;2022-12-08T11:03:33;97214.50;;;8.85;100.00
8061;BME280;4073;42.626;25.386;2022-12-08T11:06:00;97211.56;;;8.81;100.00
8061;BME280;4073;42.626;25.386;2022-12-08T11:09:01;97212.63;;;8.80;100.00
8061;BME280;4073;42.626;25.386;2022-12-08T11:11:50;97210.72;;;8.76;100.00
8061;BME280;4073;42.626;25.386;2022-12-08T11:14:30;97198.41;;;8.65;100.00
8061;BME280;4073;42.626;25.386;2022-12-08T11:19:27;97210.97;;;8.69;100.00
8061;BME280;4073;42.626;25.386;2022-12-08T11:21:53;97203.78;;;8.75;100.00
8061;BME280;4073;42.626;25.386;2022-12-08T11:24:25;97200.81;;;8.66;100.00
8061;BME280;4073;42.626;25.386;2022-12-08T11:26:57;97191.25;;;8.70;100.00
8061;BME280;4073;42.626;25.386;2022-12-08T11:29:23;97191.50;;;8.69;100.00
8061;BME280;4073;42.626;25.386;2022-12-08T11:37:02;97179.81;;;8.80;100.00
8061;BME280;4073;42.626;25.386;2022-12-08T11:39:29;97173.72;;;8.84;100.00
8061;BME280;4073;42.626;25.386;2022-12-08T11:41:57;97166.53;;;8.85;100.00
8061;BME280;4073;42.626;25.386;2022-12-08T11:47:15;97158.22;;;8.76;100.00
8061;BME280;4073;42.626;25.386;2022-12-08T11:49:41;97160.13;;;8.81;100.00
8061;BME280;4073;42.626;25.386;2022-12-08T11:52:30;97158.53;;;8.85;100.00
8061;BME280;4073;42.626;25.386;2022-12-08T11:57:38;97152.38;;;8.84;100.00
8061;BME280;4073;42.626;25.386;2022-12-08T12:00:04;97144.91;;;8.76;100.00
8061;BME280;4073;42.626;25.386;2022-12-08T12:02:34;97143.56;;;8.74;100.00
8061;BME280;4073;42.626;25.386;2022-12-08T12:19:08;97152.66;;;8.83;100.00
8061;BME280;4073;42.626;25.386;2022-12-08T12:21:51;97151.81;;;8.77;100.00
8061;BME280;4073;42.626;25.386;2022-12-08T12:24:20;97152.34;;;8.74;100.00
8061;BME280;4073;42.626;25.386;2022-12-08T12:27:00;97155.53;;;8.71;100.00
8061;BME280;4073;42.626;25.386;2022-12-08T12:29:29;97144.56;;;8.63;100.00
8061;BME280;4073;42.626;25.386;2022-12-08T12:32:07;97174.97;;;8.67;100.00
8061;BME280;4073;42.626;25.386;2022-12-08T12:34:36;97174.72;;;8.68;100.00
8061;BME280;4073;42.626;25.386;2022-12-08T12:45:22;97161.41;;;8.68;100.00
8061;BME280;4073;42.626;25.386;2022-12-08T12:55:50;97172.06;;;8.68;100.00
8061;BME280;4073;42.626;25.386;2022-12-08T13:06:04;97169.09;;;8.65;100.00
8061;BME280;4073;42.626;25.386;2022-12-08T13:08:30;97165.34;;;8.61;100.00
8061;BME280;4073;42.626;25.386;2022-12-08T13:11:03;97161.91;;;8.65;100.00
8061;BME280;4073;42.626;25.386;2022-12-08T13:13:29;97160.59;;;8.68;100.00
8061;BME280;4073;42.626;25.386;2022-12-08T13:18:40;97150.97;;;8.62;100.00
8061;BME280;4073;42.626;25.386;2022-12-08T13:26:27;97164.78;;;8.54;100.00
8061;BME280;4073;42.626;25.386;2022-12-08T13:31:50;97172.00;;;8.58;100.00
8061;BME280;4073;42.626;25.386;2022-12-08T13:45:01;97179.16;;;8.53;100.00
8061;BME280;4073;42.626;25.386;2022-12-08T13:47:52;97169.81;;;8.45;100.00
8061;BME280;4073;42.626;25.386;2022-12-08T13:50:21;97167.38;;;8.44;100.00
8061;BME280;4073;42.626;25.386;2022-12-08T13:52:59;97170.81;;;8.39;100.00
8061;BME280;4073;42.626;25.386;2022-12-08T13:55:42;97170.00;;;8.39;100.00
8061;BME280;4073;42.626;25.386;2022-12-08T13:58:35;97179.31;;;8.36;100.00
8061;BME280;4073;42.626;25.386;2022-12-08T14:01:15;97179.56;;;8.35;100.00
8061;BME280;4073;42.626;25.386;2022-12-08T14:06:16;97170.00;;;8.34;100.00
8061;BME280;4073;42.626;25.386;2022-12-08T14:08:42;97164.63;;;8.29;100.00
8061;BME280;4073;42.626;25.386;2022-12-08T14:11:20;97167.31;;;8.34;100.00
8061;BME280;4073;42.626;25.386;2022-12-08T14:14:02;97176.91;;;8.35;100.00
8061;BME280;4073;42.626;25.386;2022-12-08T14:16:38;97176.91;;;8.35;100.00
8061;BME280;4073;42.626;25.386;2022-12-08T14:19:26;97182.50;;;8.33;100.00
8061;BME280;4073;42.626;25.386;2022-12-08T14:22:01;97176.84;;;8.25;100.00
8061;BME280;4073;42.626;25.386;2022-12-08T14:24:30;97166.19;;;8.25;100.00
8061;BME280;4073;42.626;25.386;2022-12-08T14:26:59;97164.84;;;8.22;100.00
8061;BME280;4073;42.626;25.386;2022-12-08T14:30:24;97170.41;;;8.21;100.00
8061;BME280;4073;42.626;25.386;2022-12-08T14:37:43;97171.72;;;8.18;100.00
8061;BME280;4073;42.626;25.386;2022-12-08T14:40:29;97186.88;;;8.18;100.00
8061;BME280;4073;42.626;25.386;2022-12-08T14:48:26;97181.75;;;8.06;100.00
8061;BME280;4073;42.626;25.386;2022-12-08T14:53:20;97195.88;;;8.07;100.00
8061;BME280;4073;42.626;25.386;2022-12-08T14:55:46;97179.91;;;8.12;100.00
8061;BME280;4073;42.626;25.386;2022-12-08T14:58:21;97182.03;;;8.10;100.00
8061;BME280;4073;42.626;25.386;2022-12-08T15:00:54;97179.88;;;8.07;100.00
8061;BME280;4073;42.626;25.386;2022-12-08T15:03:21;97173.22;;;8.04;100.00
8061;BME280;4073;42.626;25.386;2022-12-08T15:05:52;97188.13;;;8.05;100.00
8061;BME280;4073;42.626;25.386;2022-12-08T15:08:20;97189.44;;;8.02;100.00
8061;BME280;4073;42.626;25.386;2022-12-08T15:10:46;97185.97;;;8.02;100.00
8061;BME280;4073;42.626;25.386;2022-12-08T15:15:56;97184.16;;;8.07;100.00
8061;BME280;4073;42.626;25.386;2022-12-08T15:18:39;97166.03;;;8.04;100.00
8061;BME280;4073;42.626;25.386;2022-12-08T15:21:06;97171.41;;;8.10;100.00
8061;BME280;4073;42.626;25.386;2022-12-08T15:23:41;97170.63;;;8.14;100.00
8061;BME280;4073;42.626;25.386;2022-12-08T15:26:12;97168.75;;;8.15;100.00
8061;BME280;4073;42.626;25.386;2022-12-08T15:28:42;97171.97;;;8.17;100.00